Time;durP1;ratioP1;P1;durP2;ratioP2;P2;SDS_P1;SDS_P2;PMS_P1;PMS_P2;Temp;Humidity;BMP_temperature;BMP_pressure;BME280_temperature;BME280_humidity;BME280_pressure;Samples;Min_cycle;Max_cycle;Signal;HPM_P1;HPM_P2
2022/10/03 00:01:09;;;;;;;15.38;4.05;;;;;;;9.42;85.20;102450.75;5025540;28;20757;-69
2022/10/03 00:04:10;;;;;;;13.45;4.35;;;;;;;9.41;85.57;102446.41;5023113;28;20057;-69
2022/10/03 00:07:29;;;;;;;13.07;4.38;;;;;;;9.38;85.56;102444.63;5027018;28;20523;-69
2022/10/03 00:10:23;;;;;;;14.02;4.22;;;;;;;9.35;85.64;102452.53;5029619;28;20042;-69
2022/10/03 00:12:53;;;;;;;14.90;4.30;;;;;;;9.32;85.49;102455.16;5023146;28;20372;-69
2022/10/03 00:15:38;;;;;;;17.15;4.15;;;;;;;9.30;85.99;102462.16;5020548;28;20714;-68
2022/10/03 00:18:33;;;;;;;13.88;4.28;;;;;;;9.28;85.64;102451.66;5025252;28;20077;-69
2022/10/03 00:21:26;;;;;;;17.63;4.70;;;;;;;9.25;85.76;102456.03;5025471;28;20104;-69
2022/10/03 00:24:32;;;;;;;14.75;4.90;;;;;;;9.26;85.88;102458.66;5022937;28;20045;-69
2022/10/03 00:27:15;;;;;;;14.13;4.72;;;;;;;9.23;85.92;102469.19;5022718;28;20041;-69
2022/10/03 00:30:07;;;;;;;17.73;4.47;;;;;;;9.20;85.97;102463.03;5027767;28;20782;-67
2022/10/03 00:33:17;;;;;;;14.93;4.82;;;;;;;9.17;85.96;102464.78;5026007;28;20550;-67
2022/10/03 00:36:25;;;;;;;15.98;4.35;;;;;;;9.15;85.92;102469.19;5029449;28;20577;-67
2022/10/03 00:39:24;;;;;;;16.00;4.30;;;;;;;9.13;86.02;102467.41;5025866;28;20654;-68
2022/10/03 00:41:53;;;;;;;15.07;4.95;;;;;;;9.11;86.01;102470.03;5025847;28;20523;-68
2022/10/03 00:45:09;;;;;;;15.98;4.50;;;;;;;9.10;85.92;102481.44;5027753;28;20041;-68
2022/10/03 00:48:20;;;;;;;10.93;4.85;;;;;;;9.07;86.04;102467.41;5026372;28;20122;-68
2022/10/03 00:51:02;;;;;;;10.95;4.50;;;;;;;9.04;85.89;102480.53;5028702;28;20436;-68
2022/10/03 00:53:43;;;;;;;13.02;5.10;;;;;;;9.01;85.99;102487.53;5028047;28;20571;-68
2022/10/03 00:56:35;;;;;;;18.08;4.50;;;;;;;8.98;86.06;102484.03;5022539;28;20530;-68
2022/10/03 00:59:30;;;;;;;15.57;4.63;;;;;;;8.97;86.23;102487.53;5026165;28;20081;-68
2022/10/03 01:02:22;;;;;;;13.90;4.47;;;;;;;8.95;86.22;102486.69;5027419;28;20050;-67
2022/10/03 01:05:08;;;;;;;16.67;4.30;;;;;;;8.94;86.25;102495.44;5031986;28;20041;-67
2022/10/03 01:08:01;;;;;;;16.15;4.60;;;;;;;8.90;86.33;102485.78;5031469;28;20129;-68
2022/10/03 01:11:15;;;;;;;9.82;4.47;;;;;;;8.90;86.46;102485.78;5026950;28;20038;-68
2022/10/03 01:14:27;;;;;;;9.85;4.25;;;;;;;8.88;86.41;102484.88;5029227;28;20487;-68
2022/10/03 01:17:13;;;;;;;9.80;4.30;;;;;;;8.84;86.38;102491.88;5031174;28;20053;-68
2022/10/03 01:20:15;;;;;;;13.57;4.75;;;;;;;8.82;86.72;102488.38;5029328;28;20054;-68
2022/10/03 01:23:30;;;;;;;16.33;5.10;;;;;;;8.81;86.74;102494.50;5031603;28;20049;-68
2022/10/03 01:26:42;;;;;;;15.63;4.57;;;;;;;8.79;86.73;102493.63;5032114;28;20085;-68
2022/10/03 01:32:29;;;;;;;12.48;4.43;;;;;;;8.74;86.83;102495.34;5031314;28;20049;-68
2022/10/03 01:35:27;;;;;;;16.05;4.53;;;;;;;8.74;86.74;102501.50;5024359;28;20069;-68
2022/10/03 01:38:11;;;;;;;11.75;4.45;;;;;;;8.72;86.76;102507.63;5028825;28;20118;-68
2022/10/03 01:41:02;;;;;;;15.23;4.38;;;;;;;8.73;87.14;102518.16;5030943;28;20041;-68
2022/10/03 01:44:00;;;;;;;12.90;4.38;;;;;;;8.70;86.87;102526.88;5030853;28;20104;-68
2022/10/03 01:46:43;;;;;;;14.02;4.45;;;;;;;8.67;87.03;102512.84;5029139;28;20069;-69
2022/10/03 01:49:37;;;;;;;15.50;4.63;;;;;;;8.66;87.18;102522.50;5030761;28;20034;-68
2022/10/03 01:52:29;;;;;;;12.98;4.88;;;;;;;8.67;87.48;102516.38;5022056;28;20061;-69
2022/10/03 01:55:24;;;;;;;12.43;4.63;;;;;;;8.67;87.52;102512.84;5029754;28;20177;-68
2022/10/03 01:58:26;;;;;;;14.77;4.05;;;;;;;8.64;87.38;102504.97;5028453;28;20073;-69
2022/10/03 02:01:08;;;;;;;12.70;4.70;;;;;;;8.61;87.44;102512.84;5025482;28;20101;-68
2022/10/03 02:04:10;;;;;;;18.10;4.88;;;;;;;8.60;87.53;102517.19;5031089;28;20558;-68
2022/10/03 02:07:27;;;;;;;13.50;4.35;;;;;;;8.60;87.71;102525.09;5030020;28;20088;-68
2022/10/03 02:10:18;;;;;;;10.57;4.30;;;;;;;8.58;87.75;102523.34;5030812;28;20780;-68
2022/10/03 02:13:04;;;;;;;13.20;4.72;;;;;;;8.58;87.90;102521.59;5026031;28;20049;-68
2022/10/03 02:15:43;;;;;;;14.80;4.60;;;;;;;8.58;87.87;102520.69;5029528;28;20061;-68
2022/10/03 02:18:27;;;;;;;13.18;4.93;;;;;;;8.57;88.11;102525.09;5028225;28;20637;-68
2022/10/03 02:21:15;;;;;;;17.67;4.90;;;;;;;8.55;87.87;102526.84;5031596;28;20487;-68
2022/10/03 02:23:45;;;;;;;14.02;4.95;;;;;;;8.54;87.81;102530.31;5030724;28;20096;-68
2022/10/03 02:27:05;;;;;;;13.05;5.15;;;;;;;8.53;87.87;102526.84;5029113;28;20056;-69
2022/10/03 02:30:00;;;;;;;14.27;4.60;;;;;;;8.49;88.08;102524.19;5029128;28;20093;-67
2022/10/03 02:33:15;;;;;;;13.00;4.70;;;;;;;8.46;88.07;102524.13;5025462;28;20049;-69
2022/10/03 02:36:13;;;;;;;14.80;4.50;;;;;;;8.43;88.17;102524.09;5030138;28;20089;-68
2022/10/03 02:39:49;;;;;;;12.38;4.70;;;;;;;8.42;88.09;102523.22;5027839;28;20563;-68
2022/10/03 02:42:50;;;;;;;13.02;3.90;;;;;;;8.40;88.13;102527.59;5027408;28;20042;-68
2022/10/03 02:46:08;;;;;;;12.85;4.80;;;;;;;8.36;88.02;102531.97;5027618;28;20046;-68
2022/10/03 02:49:15;;;;;;;15.18;4.88;;;;;;;8.33;88.07;102524.03;5028610;28;20120;-67
2022/10/03 02:52:17;;;;;;;14.18;4.85;;;;;;;8.32;88.22;102526.69;5025889;28;20141;-68
2022/10/03 02:55:41;;;;;;;9.63;4.63;;;;;;;8.33;88.20;102531.06;5021047;28;20492;-67
2022/10/03 02:58:45;;;;;;;13.45;4.72;;;;;;;8.31;88.11;102530.16;5029148;28;20042;-70
2022/10/03 03:01:33;;;;;;;11.73;4.93;;;;;;;8.29;88.15;102531.91;5029680;28;20049;-70
2022/10/03 03:04:21;;;;;;;14.48;5.35;;;;;;;8.31;88.46;102530.16;5028058;28;20108;-70
2022/10/03 03:07:04;;;;;;;21.48;6.10;;;;;;;8.33;88.83;102531.06;5023936;28;20796;-68
2022/10/03 03:10:10;;;;;;;10.43;5.43;;;;;;;8.35;88.86;102534.56;5020869;28;20444;-68
2022/10/03 03:13:28;;;;;;;15.48;5.97;;;;;;;8.36;88.84;102538.94;5025481;28;20133;-68
2022/10/03 03:16:38;;;;;;;13.82;4.82;;;;;;;8.35;88.82;102539.81;5036697;28;20555;-68
2022/10/03 03:19:08;;;;;;;17.23;5.68;;;;;;;8.32;88.77;102535.41;5029421;28;20054;-68
2022/10/03 03:22:09;;;;;;;18.33;6.35;;;;;;;8.33;89.06;102531.06;5030803;28;20096;-68
2022/10/03 03:25:04;;;;;;;12.82;4.95;;;;;;;8.32;89.11;102530.16;5027465;28;20049;-68
2022/10/03 03:28:00;;;;;;;15.90;5.32;;;;;;;8.30;89.06;102544.19;5027633;28;20100;-68
2022/10/03 03:31:00;;;;;;;16.98;5.03;;;;;;;8.26;88.96;102532.78;5030333;28;20056;-67
2022/10/03 03:34:06;;;;;;;15.38;4.80;;;;;;;8.24;89.23;102540.63;5024090;28;20514;-68
2022/10/03 03:36:47;;;;;;;18.63;5.45;;;;;;;8.23;89.42;102543.25;5020555;28;20120;-68
2022/10/03 03:40:02;;;;;;;14.20;5.35;;;;;;;8.24;89.53;102542.38;5026845;28;20046;-68
2022/10/03 03:43:10;;;;;;;11.70;5.25;;;;;;;8.27;89.67;102544.16;5027618;28;20053;-67
2022/10/03 03:46:32;;;;;;;12.10;4.85;;;;;;;8.26;89.85;102545.91;5028653;28;20112;-68
2022/10/03 03:49:40;;;;;;;14.80;5.53;;;;;;;8.23;89.65;102557.28;5028461;28;20049;-68
2022/10/03 03:52:36;;;;;;;16.23;5.72;;;;;;;8.24;89.87;102542.38;5027291;28;20050;-67
2022/10/03 03:55:25;;;;;;;14.63;5.53;;;;;;;8.22;89.89;102536.22;5029541;28;20072;-67
2022/10/03 03:58:16;;;;;;;15.00;4.85;;;;;;;8.19;89.88;102544.97;5028212;28;20508;-67
2022/10/03 04:01:33;;;;;;;13.07;5.22;;;;;;;8.17;89.87;102546.72;5026808;28;20494;-67
2022/10/03 04:04:30;;;;;;;14.02;5.45;;;;;;;8.17;90.04;102545.84;5026125;28;20044;-67
2022/10/03 04:07:22;;;;;;;15.48;5.90;;;;;;;8.18;90.04;102550.25;5027637;28;20038;-68
2022/10/03 04:10:29;;;;;;;17.23;5.38;;;;;;;8.17;90.10;102549.34;5028076;28;20034;-68
2022/10/03 04:13:24;;;;;;;12.75;5.75;;;;;;;8.16;90.46;102547.56;5028146;28;20038;-68
2022/10/03 04:20:11;;;;;;;13.50;5.20;;;;;;;8.09;90.20;102549.28;5026411;28;20061;-67
2022/10/03 04:22:51;;;;;;;13.70;4.97;;;;;;;8.05;90.23;102558.03;5026204;28;20093;-68
2022/10/03 04:25:48;;;;;;;17.10;5.60;;;;;;;8.05;90.02;102560.66;5028356;28;20048;-68
2022/10/03 04:28:44;;;;;;;19.17;6.22;;;;;;;8.02;90.49;102547.47;5026017;28;20124;-67
2022/10/03 04:31:47;;;;;;;;;;;;;;;8.00;90.55;102551.84;5025268;28;20042;-67
2022/10/03 04:34:43;;;;;;;13.85;5.00;;;;;;;7.96;90.30;102543.91;5016408;28;19932;-66
2022/10/03 04:37:26;;;;;;;12.20;5.25;;;;;;;7.93;90.39;102542.16;5025827;28;20100;-67
2022/10/03 04:40:37;;;;;;;14.90;4.75;;;;;;;7.89;90.14;102538.63;5023328;28;20038;-67
2022/10/03 04:43:44;;;;;;;14.25;5.13;;;;;;;7.86;90.14;102542.97;5022992;28;20082;-68
2022/10/03 04:46:54;;;;;;;16.80;5.97;;;;;;;7.85;90.38;102552.59;5026028;28;20535;-68
2022/10/03 04:49:31;;;;;;;16.85;5.72;;;;;;;7.84;90.34;102553.44;5027493;28;20042;-67
2022/10/03 04:52:14;;;;;;;19.73;6.00;;;;;;;7.84;90.33;102555.22;5035088;28;20506;-67
2022/10/03 04:54:55;;;;;;;19.08;6.15;;;;;;;7.84;90.36;102555.22;5021805;28;20089;-67
2022/10/03 04:57:49;;;;;;;18.20;5.95;;;;;;;7.84;90.46;102560.47;5028008;28;20042;-68
2022/10/03 05:00:52;;;;;;;17.95;6.03;;;;;;;7.86;90.65;102566.63;5028540;28;20151;-67
2022/10/03 05:03:47;;;;;;;20.20;6.07;;;;;;;7.87;90.83;102571.88;5025120;28;20128;-67
2022/10/03 05:06:37;;;;;;;12.55;5.63;;;;;;;7.89;91.00;102567.53;5027905;28;20970;-67
2022/10/03 05:09:38;;;;;;;17.48;6.75;;;;;;;7.92;90.95;102574.53;5026653;28;20053;-67
2022/10/03 05:12:45;;;;;;;19.42;6.75;;;;;;;7.92;91.20;102580.69;5022696;28;20128;-67
2022/10/03 05:15:26;;;;;;;16.70;6.20;;;;;;;7.92;91.24;102579.78;5024729;28;20061;-67
2022/10/03 05:18:27;;;;;;;14.48;6.03;;;;;;;7.90;91.35;102576.25;5022838;28;20077;-68
2022/10/03 05:20:59;;;;;;;15.20;5.75;;;;;;;7.87;91.14;102579.75;5029924;28;20540;-68
2022/10/03 05:24:03;;;;;;;13.05;5.72;;;;;;;7.89;91.52;102591.16;5027260;28;20046;-68
2022/10/03 05:26:57;;;;;;;13.38;5.90;;;;;;;7.86;91.67;102588.50;5022754;28;20532;-68
2022/10/03 05:30:00;;;;;;;15.70;6.05;;;;;;;7.85;91.69;102584.09;5027661;28;20437;-68
2022/10/03 05:32:44;;;;;;;17.17;5.97;;;;;;;7.82;91.95;102591.97;5028974;28;20050;-68
2022/10/03 05:35:26;;;;;;;14.95;5.72;;;;;;;7.82;91.87;102588.44;5028557;28;20049;-68
2022/10/03 05:38:15;;;;;;;15.65;6.22;;;;;;;7.81;91.81;102587.59;5029854;28;20042;-68
2022/10/03 05:41:03;;;;;;;18.48;6.25;;;;;;;7.81;91.94;102595.47;5047412;28;20069;-67
2022/10/03 05:43:56;;;;;;;20.38;6.03;;;;;;;7.82;92.04;102591.06;5029465;28;20042;-68
2022/10/03 05:47:43;;;;;;;16.02;5.82;;;;;;;7.80;91.85;102600.69;5026968;28;20049;-67
2022/10/03 05:50:14;;;;;;;16.98;6.35;;;;;;;7.78;91.80;102588.41;5028321;28;20048;-66
2022/10/03 05:53:05;;;;;;;16.92;5.75;;;;;;;7.78;91.71;102604.16;5031324;28;20045;-68
2022/10/03 05:56:16;;;;;;;16.92;6.28;;;;;;;7.78;91.88;102604.16;5036388;28;20038;-68
2022/10/03 05:59:11;;;;;;;15.98;6.70;;;;;;;7.80;91.85;102609.44;5034973;28;20100;-68
2022/10/03 06:01:58;;;;;;;13.63;6.03;;;;;;;7.81;91.84;102608.59;5028343;28;20049;-68
2022/10/03 06:04:42;;;;;;;18.60;6.72;;;;;;;7.83;92.18;102606.88;5032115;28;20042;-68
2022/10/03 06:07:24;;;;;;;18.40;6.20;;;;;;;7.88;92.01;102610.41;5034099;28;20088;-68
2022/10/03 06:10:28;;;;;;;17.95;7.43;;;;;;;7.94;91.90;102614.81;5034642;28;20046;-68
2022/10/03 06:13:32;;;;;;;12.50;6.85;;;;;;;7.98;92.06;102610.47;5032908;28;20042;-67
2022/10/03 06:16:25;;;;;;;18.92;6.72;;;;;;;8.01;91.73;102608.75;5030164;28;20085;-67
2022/10/03 06:19:13;;;;;;;17.70;7.63;;;;;;;8.07;91.80;102613.19;5033200;28;20062;-68
2022/10/03 06:22:18;;;;;;;20.33;7.70;;;;;;;8.11;91.90;102617.63;5032685;28;20046;-68
2022/10/03 06:25:23;;;;;;;18.20;7.47;;;;;;;8.18;91.80;102618.53;5031130;28;20038;-68
2022/10/03 06:28:24;;;;;;;;;;;;;;;8.22;91.69;102622.94;5029516;28;20085;-67
2022/10/03 06:31:38;;;;;;;21.80;7.55;;;;;;;8.31;91.66;102619.50;5028401;28;19925;-67
2022/10/03 06:35:23;;;;;;;17.65;6.95;;;;;;;8.37;91.57;102630.06;5032078;28;20496;-67
2022/10/03 06:38:38;;;;;;;20.05;7.60;;;;;;;8.45;91.53;102632.75;5027237;28;20045;-67
2022/10/03 06:41:56;;;;;;;17.65;7.72;;;;;;;8.53;91.52;102628.47;5029501;28;20416;-67
2022/10/03 06:45:06;;;;;;;16.45;7.50;;;;;;;8.63;91.46;102626.78;5039126;28;21856;-68
2022/10/03 06:48:20;;;;;;;16.48;7.32;;;;;;;8.70;91.39;102621.56;5032466;28;20046;-68
2022/10/03 06:51:29;;;;;;;18.80;7.25;;;;;;;8.78;91.32;102628.63;5032615;28;20049;-68
2022/10/03 06:54:45;;;;;;;19.50;7.38;;;;;;;8.84;91.32;102626.00;5027225;28;20038;-67
2022/10/03 06:57:31;;;;;;;;;;;;;;;8.90;91.28;102635.69;5027705;28;20046;-67
2022/10/03 07:00:18;;;;;;;14.07;7.20;;;;;;;8.99;91.40;102633.09;5025236;28;19933;-67
2022/10/03 07:03:10;;;;;;;24.95;7.70;;;;;;;9.07;90.98;102638.41;5023957;28;20555;-67
2022/10/03 07:06:30;;;;;;;17.08;6.97;;;;;;;9.16;91.09;102626.16;5031869;28;21793;-67
2022/10/03 07:09:53;;;;;;;19.30;6.55;;;;;;;9.27;90.90;102631.50;5032211;28;20049;-67
2022/10/03 07:12:53;;;;;;;17.77;7.20;;;;;;;9.39;90.69;102640.31;5020656;28;20598;-67
2022/10/03 07:15:48;;;;;;;26.77;8.07;;;;;;;9.47;90.67;102643.84;5031374;28;20046;-67
2022/10/03 07:19:18;;;;;;;11.85;7.45;;;;;;;9.59;90.80;102637.72;5030638;28;20054;-67
2022/10/03 07:22:12;;;;;;;14.20;7.20;;;;;;;9.67;90.39;102643.88;5030533;28;20057;-67
2022/10/03 07:24:58;;;;;;;15.60;6.72;;;;;;;9.76;90.68;102645.66;5029653;28;20050;-69
2022/10/03 07:27:49;;;;;;;13.35;6.90;;;;;;;9.87;90.42;102638.66;5031973;28;20088;-69
2022/10/03 07:30:23;;;;;;;14.25;6.85;;;;;;;9.96;90.31;102645.72;5031846;28;20034;-69
2022/10/03 07:33:26;;;;;;;16.13;6.47;;;;;;;10.03;90.11;102643.94;5031347;28;20118;-69
2022/10/03 07:39:48;;;;;;;15.80;6.38;;;;;;;10.26;89.83;102652.72;5031385;28;20100;-69
2022/10/03 07:42:40;;;;;;;32.53;8.32;;;;;;;10.38;89.76;102653.66;5026978;28;20042;-68
2022/10/03 07:45:36;;;;;;;19.63;6.95;;;;;;;10.50;89.45;102655.38;5031694;28;20084;-68
2022/10/03 07:48:44;;;;;;;17.42;6.13;;;;;;;10.61;89.31;102658.88;5030728;28;20054;-69
2022/10/03 07:51:24;;;;;;;14.30;6.28;;;;;;;10.76;89.10;102665.03;5031096;28;20046;-69
2022/10/03 07:54:48;;;;;;;13.45;6.25;;;;;;;10.88;88.81;102670.28;5031381;28;20038;-69
2022/10/03 07:57:42;;;;;;;12.75;6.22;;;;;;;10.98;88.86;102672.03;5030135;28;20058;-69
2022/10/03 08:00:18;;;;;;;14.52;5.90;;;;;;;11.07;88.52;102672.88;5024413;28;20463;-68
2022/10/03 08:03:23;;;;;;;11.20;6.00;;;;;;;11.22;88.25;102677.22;5031228;28;20124;-69
2022/10/03 08:06:25;;;;;;;11.80;5.75;;;;;;;11.32;87.81;102677.16;5029058;28;20042;-69
2022/10/03 08:09:42;;;;;;;10.75;5.50;;;;;;;11.44;87.39;102678.91;5029428;28;20048;-69
2022/10/03 08:13:02;;;;;;;16.48;5.82;;;;;;;11.56;87.26;102682.34;5030545;28;20046;-69
2022/10/03 08:15:52;;;;;;;34.67;7.43;;;;;;;11.69;87.13;102683.16;5028496;28;20129;-69
2022/10/03 08:18:25;;;;;;;22.00;6.32;;;;;;;11.80;86.46;102682.22;5024508;28;20463;-69
2022/10/03 08:21:56;;;;;;;12.77;5.70;;;;;;;11.95;86.61;102680.38;5030543;28;20112;-69
2022/10/03 08:24:48;;;;;;;13.15;5.55;;;;;;;12.09;86.15;102688.22;5028039;28;20081;-69
2022/10/03 08:27:21;;;;;;;9.35;5.00;;;;;;;12.22;85.24;102681.94;5024894;28;20045;-69
2022/10/03 08:30:04;;;;;;;15.00;5.75;;;;;;;12.36;85.18;102678.31;5029613;28;20042;-69
2022/10/03 08:33:06;;;;;;;14.77;5.30;;;;;;;12.49;84.85;102676.44;5029394;28;20502;-69
2022/10/03 08:36:01;;;;;;;15.32;5.43;;;;;;;12.61;84.53;102675.47;5025661;28;20108;-69
2022/10/03 08:38:48;;;;;;;15.00;4.95;;;;;;;12.67;84.25;102678.03;5029260;28;20045;-69
2022/10/03 08:41:50;;;;;;;9.50;4.60;;;;;;;12.73;84.43;102681.50;5030838;28;20053;-69
2022/10/03 08:45:07;;;;;;;10.52;4.72;;;;;;;12.80;83.82;102682.31;5030339;28;20053;-69
2022/10/03 08:48:40;;;;;;;11.65;4.90;;;;;;;12.94;83.84;102674.25;5024631;28;20038;-69
2022/10/03 08:51:19;;;;;;;14.13;4.53;;;;;;;13.05;83.04;102675.00;5012110;28;20966;-69
2022/10/03 08:54:26;;;;;;;11.85;4.93;;;;;;;13.17;83.18;102675.75;5030367;28;20050;-69
2022/10/03 08:57:24;;;;;;;15.63;4.95;;;;;;;13.31;83.29;102673.78;5027546;28;20046;-69
2022/10/03 09:00:08;;;;;;;12.32;4.90;;;;;;;13.46;82.80;102675.41;5028549;28;20154;-69
2022/10/03 09:03:09;;;;;;;11.52;4.78;;;;;;;13.61;82.97;102684.06;5028556;28;20080;-69
2022/10/03 09:06:23;;;;;;;13.40;5.00;;;;;;;13.72;82.61;102675.94;5027164;28;20472;-69
2022/10/03 09:09:32;;;;;;;9.83;4.40;;;;;;;13.84;82.34;102682.84;5029464;28;20042;-69
2022/10/03 09:12:41;;;;;;;13.77;4.30;;;;;;;13.93;82.30;102675.63;5027796;28;20524;-69
2022/10/03 09:15:56;;;;;;;12.10;4.50;;;;;;;14.08;81.82;102676.28;5028850;28;20045;-68
2022/10/03 09:18:41;;;;;;;15.18;4.45;;;;;;;14.19;81.65;102677.00;5029720;28;20050;-69
2022/10/03 09:21:59;;;;;;;7.80;3.55;;;;;;;14.31;81.36;102673.25;5029926;28;20092;-69
2022/10/03 09:24:56;;;;;;;14.45;4.20;;;;;;;14.43;81.31;102678.38;5021921;28;20463;-69
2022/10/03 09:28:03;;;;;;;9.18;3.33;;;;;;;14.59;80.74;102678.06;5033217;28;20034;-69
2022/10/03 09:30:44;;;;;;;8.57;2.95;;;;;;;14.73;80.28;102681.41;5033287;28;20585;-69
2022/10/03 09:33:54;;;;;;;9.55;3.45;;;;;;;14.87;79.28;102673.16;5032556;28;20046;-69
2022/10/03 09:37:05;;;;;;;14.23;3.45;;;;;;;15.08;79.19;102671.00;5033251;28;20161;-69
2022/10/03 09:40:09;;;;;;;12.48;3.40;;;;;;;15.21;78.72;102668.97;5025187;28;20050;-69
2022/10/03 09:43:20;;;;;;;9.52;3.30;;;;;;;15.41;78.31;102671.22;5026230;28;20498;-69
2022/10/03 09:46:12;;;;;;;10.63;2.80;;;;;;;15.60;78.10;102653.06;5032714;28;20050;-69
2022/10/03 09:49:03;;;;;;;10.18;2.55;;;;;;;15.78;76.88;102649.09;5032818;28;20117;-69
2022/10/03 09:51:51;;;;;;;11.75;2.60;;;;;;;15.90;76.46;102642.63;5032965;28;20117;-69
2022/10/03 09:54:41;;;;;;;14.90;3.05;;;;;;;16.04;75.04;102642.31;5031578;28;20124;-70
2022/10/03 09:57:48;;;;;;;15.48;3.13;;;;;;;16.17;74.72;102634.91;5031612;28;20041;-69
2022/10/03 10:00:24;;;;;;;19.75;3.60;;;;;;;16.30;74.56;102632.78;5032981;28;20045;-69
2022/10/03 10:03:47;;;;;;;8.70;2.20;;;;;;;16.44;72.54;102635.94;5032817;28;20038;-69
2022/10/03 10:06:36;;;;;;;18.35;2.53;;;;;;;16.55;73.32;102635.69;5032882;28;20041;-69
2022/10/03 10:09:52;;;;;;;8.40;2.30;;;;;;;16.64;71.04;102637.19;5032111;28;20042;-70
2022/10/03 10:13:26;;;;;;;11.10;2.30;;;;;;;16.68;69.44;102638.03;5029348;28;20042;-69
2022/10/03 10:16:54;;;;;;;8.98;2.63;;;;;;;16.75;70.18;102627.13;5028720;28;20054;-69
2022/10/03 10:19:59;;;;;;;7.00;1.73;;;;;;;16.88;69.73;102626.78;5029612;28;20064;-69
2022/10/03 10:22:56;;;;;;;7.90;2.00;;;;;;;16.91;68.99;102622.25;5031732;28;20057;-69
2022/10/03 10:25:50;;;;;;;8.82;1.80;;;;;;;17.00;69.33;102621.16;5030275;28;20490;-69
2022/10/03 10:29:02;;;;;;;7.78;1.77;;;;;;;17.15;68.56;102624.25;5031739;28;20046;-69
2022/10/03 10:32:17;;;;;;;20.10;2.70;;;;;;;17.28;67.76;102628.31;5031904;28;20459;-69
2022/10/03 10:35:45;;;;;;;13.32;2.15;;;;;;;17.36;66.08;102620.09;5024670;28;20048;-69
2022/10/03 10:38:29;;;;;;;5.83;1.63;;;;;;;17.48;63.98;102622.38;5032369;28;20042;-70
2022/10/03 10:42:05;;;;;;;7.60;1.85;;;;;;;17.64;63.98;102617.44;5032080;28;20037;-70
2022/10/03 10:45:12;;;;;;;8.00;1.70;;;;;;;17.85;64.07;102623.00;5027929;28;20045;-70
2022/10/03 10:48:12;;;;;;;8.95;1.70;;;;;;;17.93;63.78;102622.72;5031667;28;20097;-70
2022/10/03 10:51:18;;;;;;;7.60;1.80;;;;;;;18.05;63.14;102630.34;5031176;28;20045;-70
2022/10/03 10:54:20;;;;;;;5.57;1.60;;;;;;;18.16;59.96;102627.34;5031430;28;20046;-70
2022/10/03 10:57:38;;;;;;;5.75;1.40;;;;;;;18.15;59.95;102618.44;5030598;28;20614;-70
2022/10/03 11:00:25;;;;;;;8.32;1.95;;;;;;;18.15;61.55;102622.94;5028146;28;20042;-70
2022/10/03 11:03:16;;;;;;;6.28;1.30;;;;;;;18.16;59.30;102620.19;5029146;28;20046;-70
2022/10/03 11:06:43;;;;;;;11.98;2.00;;;;;;;18.19;60.71;102623.69;5030163;28;20763;-70
2022/10/03 11:09:45;;;;;;;7.20;1.42;;;;;;;18.36;56.80;102633.78;5031680;28;20042;-70
2022/10/03 11:12:47;;;;;;;6.68;1.23;;;;;;;18.47;57.31;102620.91;5026071;28;20052;-70
2022/10/03 11:15:59;;;;;;;3.97;1.27;;;;;;;18.55;57.33;102620.66;5028063;28;20076;-69
2022/10/03 11:19:07;;;;;;;5.22;1.70;;;;;;;18.67;58.49;102619.34;5027190;28;20097;-69
2022/10/03 11:22:08;;;;;;;5.00;1.35;;;;;;;18.86;59.83;102616.84;5028163;28;20112;-69
2022/10/03 11:25:21;;;;;;;8.45;1.52;;;;;;;18.93;59.67;102613.94;5031288;28;20578;-69
2022/10/03 11:28:32;;;;;;;5.15;1.20;;;;;;;18.97;55.59;102619.16;5030788;28;20045;-69
2022/10/03 11:32:10;;;;;;;7.25;1.70;;;;;;;18.92;56.77;102612.16;5029455;28;20054;-69
2022/10/03 11:35:28;;;;;;;23.33;2.70;;;;;;;19.02;57.09;102614.50;5017762;28;20050;-70
2022/10/03 11:37:58;;;;;;;5.78;1.45;;;;;;;19.03;54.96;102606.41;5029030;28;20120;-70
2022/10/03 11:40:52;;;;;;;12.40;1.80;;;;;;;19.01;55.41;102615.44;5030981;28;20046;-70
2022/10/03 11:43:59;;;;;;;7.07;1.42;;;;;;;18.87;55.67;102615.94;5030295;28;20050;-70
2022/10/03 11:47:22;;;;;;;6.95;1.40;;;;;;;18.75;56.53;102610.09;5028376;28;20524;-70
2022/10/03 11:50:22;;;;;;;7.22;1.60;;;;;;;18.94;55.47;102609.44;5029215;28;20054;-70
2022/10/03 11:53:11;;;;;;;6.13;1.48;;;;;;;19.10;54.87;102604.38;5029956;28;20046;-70
2022/10/03 11:55:45;;;;;;;13.85;2.20;;;;;;;19.11;55.04;102611.47;5030994;28;20499;-70
2022/10/03 11:58:31;;;;;;;7.95;1.90;;;;;;;19.04;57.04;102605.50;5028969;28;20096;-69
2022/10/03 12:01:43;;;;;;;5.88;1.80;;;;;;;19.06;57.43;102606.31;5029365;28;20046;-70
2022/10/03 12:04:38;;;;;;;7.82;2.05;;;;;;;19.02;56.64;102611.84;5029621;28;20049;-67
2022/10/03 12:10:50;;;;;;;15.75;2.50;;;;;;;18.89;55.94;102608.72;5029188;28;20053;-71
2022/10/03 12:13:40;;;;;;;13.98;2.40;;;;;;;18.83;56.17;102607.16;5027241;28;20034;-71
2022/10/03 12:17:06;;;;;;;7.88;1.92;;;;;;;18.82;56.56;102605.41;5028904;28;20108;-69
2022/10/03 12:20:03;;;;;;;10.73;2.35;;;;;;;18.95;56.17;102605.84;5021429;28;20207;-70
2022/10/03 12:22:40;;;;;;;7.90;1.70;;;;;;;19.08;57.16;102611.59;5022791;28;20789;-68
2022/10/03 12:25:35;;;;;;;7.38;1.77;;;;;;;19.28;55.41;102601.94;5029950;28;20075;-69
2022/10/03 12:28:33;;;;;;;;;;;;;;;19.34;55.53;102607.91;5026977;28;20096;-69
2022/10/03 12:31:27;;;;;;;8.40;1.90;;;;;;;19.41;54.55;102595.16;5022080;28;19960;-68
2022/10/03 12:34:18;;;;;;;4.33;1.40;;;;;;;19.23;53.81;102596.75;5027025;28;20046;-68
2022/10/03 12:37:22;;;;;;;13.10;1.63;;;;;;;19.16;54.46;102596.16;5027831;28;20038;-69
2022/10/03 12:40:16;;;;;;;6.22;1.52;;;;;;;19.09;52.70;102600.84;5029144;28;20484;-68
2022/10/03 12:42:59;;;;;;;10.00;1.50;;;;;;;19.01;53.45;102594.06;5024544;28;20048;-69
2022/10/03 12:45:46;;;;;;;6.95;1.30;;;;;;;18.92;54.11;102588.09;5028148;28;20042;-69
2022/10/03 12:48:20;;;;;;;9.15;1.30;;;;;;;18.91;54.12;102594.38;5024711;28;20042;-68
2022/10/03 12:51:03;;;;;;;7.60;1.38;;;;;;;18.88;53.92;102586.47;5028706;28;20054;-69
2022/10/03 12:53:51;;;;;;;6.50;1.55;;;;;;;18.91;53.38;102585.50;5029384;28;20045;-69
2022/10/03 12:56:27;;;;;;;15.70;1.70;;;;;;;18.95;53.18;102588.97;5026468;28;20748;-69
2022/10/03 12:59:24;;;;;;;7.65;1.35;;;;;;;19.00;52.61;102581.63;5030784;28;20042;-69
2022/10/03 13:02:28;;;;;;;12.05;1.80;;;;;;;18.98;53.57;102589.72;5032981;28;20077;-69
2022/10/03 13:05:29;;;;;;;27.65;2.25;;;;;;;19.02;53.86;102585.09;5029506;28;20050;-69
2022/10/03 13:08:36;;;;;;;8.45;1.73;;;;;;;19.08;54.64;102587.53;5032778;28;20046;-68
2022/10/03 13:11:24;;;;;;;8.13;1.23;;;;;;;19.08;53.69;102582.19;5030299;28;20046;-69
2022/10/03 13:14:29;;;;;;;7.07;1.42;;;;;;;19.13;53.56;102582.91;5028639;28;20042;-69
2022/10/03 13:17:11;;;;;;;14.95;1.83;;;;;;;19.17;53.92;102571.16;5032536;28;20456;-69
2022/10/03 13:20:05;;;;;;;9.07;1.52;;;;;;;19.27;52.34;102576.16;5032850;28;20060;-68
2022/10/03 13:23:17;;;;;;;6.20;1.38;;;;;;;19.23;52.34;102573.59;5025728;28;20499;-69
2022/10/03 13:26:30;;;;;;;8.63;1.52;;;;;;;19.24;53.46;102569.97;5032982;28;20045;-68
2022/10/03 13:29:16;;;;;;;5.55;1.35;;;;;;;19.36;54.34;102563.25;5026848;28;20508;-68
2022/10/03 13:32:08;;;;;;;7.20;1.50;;;;;;;19.49;52.60;102566.31;5026881;28;20096;-69
2022/10/03 13:35:57;;;;;;;8.38;2.00;;;;;;;19.57;52.91;102565.13;5033045;28;20038;-69
2022/10/03 13:39:06;;;;;;;8.13;1.70;;;;;;;19.72;52.67;102556.47;5017193;28;20050;-68
2022/10/03 13:42:09;;;;;;;5.75;1.20;;;;;;;19.90;52.12;102564.69;5009284;28;20054;-68
2022/10/03 13:44:58;;;;;;;4.88;1.40;;;;;;;19.89;53.33;102555.78;5032909;28;20545;-68
2022/10/03 13:47:59;;;;;;;12.90;1.83;;;;;;;19.88;52.51;102561.22;5031042;28;20041;-68
2022/10/03 13:50:55;;;;;;;12.80;2.05;;;;;;;19.81;51.39;102557.91;5022533;28;20061;-68
2022/10/03 13:54:00;;;;;;;22.15;2.00;;;;;;;19.71;52.01;102544.03;5032633;28;20121;-69
2022/10/03 13:56:45;;;;;;;6.35;1.50;;;;;;;19.74;52.51;102548.41;5027248;28;20042;-69
2022/10/03 13:59:35;;;;;;;9.38;1.30;;;;;;;19.78;52.14;102548.19;5029278;28;20061;-69
2022/10/03 14:02:02;;;;;;;9.10;1.42;;;;;;;19.78;52.87;102550.88;5027947;28;20034;-69
2022/10/03 14:04:53;;;;;;;7.07;1.30;;;;;;;19.75;51.59;102548.31;5025478;28;20844;-69